This is the latest recevied weather packets stored in our database for station/object N4OGP-WX. If no packets are shown the sender has not sent any weather packets the latest 10 day(s).
| Time | Temp. | Humidity | Pressure | Rain* | Wind** | Luminosity | Snow |
|---|---|---|---|---|---|---|---|
| 1778190118 | 25° C | 90% | 1010 hPa | 0 mm | - | - | - |
| 1778190058 | 23.89° C | 42% | 1020.4 hPa | 0 mm | - | - | - |
| 1778189968 | 25° C | 89% | 1010 hPa | 0 mm | - | - | - |
| 1778189908 | 25° C | 89% | 1010.1 hPa | 0 mm | - | - | - |
| 1778189848 | 25.56° C | 89% | 1010.1 hPa | 0 mm | - | - | - |
| 1778189758 | 25° C | 90% | 1010.1 hPa | 0 mm | - | - | - |
| 1778189668 | 25° C | 90% | 1010.1 hPa | 0 mm | - | - | - |
| 1778189578 | 25° C | 90% | 1010.1 hPa | 0 mm | - | - | - |
| 1778189518 | 23.89° C | 42% | 1020.4 hPa | 0 mm | - | - | - |
| 1778189458 | 23.89° C | 42% | 1020.4 hPa | 0 mm | - | - | - |
| 1778189368 | 23.89° C | 42% | 1020.4 hPa | 0 mm | - | - | - |
| 1778189278 | 23.89° C | 42% | 1020.4 hPa | 0 mm | - | - | - |
| 1778189218 | 23.89° C | 42% | 1020.4 hPa | 0 mm | - | - | - |
| 1778189128 | 23.89° C | 42% | 1020.4 hPa | 0 mm | - | - | - |
| 1778189068 | 25° C | 90% | 1010.2 hPa | 0 mm | - | - | - |
| 1778188978 | 23.89° C | 42% | 1020.4 hPa | 0 mm | - | - | - |
| 1778188888 | 23.89° C | 42% | 1020.4 hPa | 0 mm | - | - | - |
| 1778188828 | 25° C | 90% | 1010.2 hPa | 0 mm | - | - | - |
| 1778188738 | 23.89° C | 42% | 1020.4 hPa | 0 mm | - | - | - |
| 1778188678 | 23.89° C | 42% | 1020.4 hPa | 0 mm | - | - | - |
| 1778188588 | 23.89° C | 42% | 1020.4 hPa | 0 mm | - | - | - |
| 1778188498 | 25° C | 90% | 1010.2 hPa | 0 mm | - | - | - |
| 1778188438 | 25° C | 91% | 1010.2 hPa | 0 mm | - | - | - |
| 1778188348 | 25° C | 91% | 1010.2 hPa | 0 mm | - | - | - |
| 1778188258 | 23.89° C | 42% | 1020.4 hPa | 0 mm | - | - | - |
* Rain latest hour (hover to see other rain measurements)
** Current wind speed in m/s (hover to see current wind gust speed)